sensor_id;sensor_type;location;lat;lon;timestamp;pressure;altitude;pressure_sealevel;temperature;humidity
20860;BME280;10590;48.154;11.514;2022-07-03T00:02:47;95974.84;;;16.02;85.50
20860;BME280;10590;48.154;11.514;2022-07-03T00:07:53;95974.75;;;15.82;87.58
20860;BME280;10590;48.154;11.514;2022-07-03T00:12:55;95971.31;;;15.57;90.92
20860;BME280;10590;48.154;11.514;2022-07-03T00:17:56;95978.13;;;16.23;86.44
20860;BME280;10590;48.154;11.514;2022-07-03T00:23:02;95974.34;;;15.96;88.52
20860;BME280;10590;48.154;11.514;2022-07-03T00:28:06;95964.97;;;16.25;86.31
20860;BME280;10590;48.154;11.514;2022-07-03T00:33:09;95973.31;;;16.48;84.06
20860;BME280;10590;48.154;11.514;2022-07-03T00:38:20;95972.25;;;16.53;83.20
20860;BME280;10590;48.154;11.514;2022-07-03T00:43:25;95967.00;;;16.44;83.24
20860;BME280;10590;48.154;11.514;2022-07-03T00:48:27;95966.97;;;16.60;82.58
20860;BME280;10590;48.154;11.514;2022-07-03T00:53:32;95964.00;;;16.49;82.65
20860;BME280;10590;48.154;11.514;2022-07-03T00:58:34;95966.44;;;16.38;82.78
20860;BME280;10590;48.154;11.514;2022-07-03T01:03:39;95961.88;;;16.27;83.64
20860;BME280;10590;48.154;11.514;2022-07-03T01:08:48;95954.78;;;16.22;84.04
20860;BME280;10590;48.154;11.514;2022-07-03T01:14:00;95951.00;;;16.11;85.03
20860;BME280;10590;48.154;11.514;2022-07-03T01:19:10;95959.78;;;16.04;85.83
20860;BME280;10590;48.154;11.514;2022-07-03T01:24:47;95965.13;;;16.01;86.30
20860;BME280;10590;48.154;11.514;2022-07-03T01:30:03;95967.13;;;15.88;86.71
20860;BME280;10590;48.154;11.514;2022-07-03T01:35:07;95948.91;;;15.88;87.59
20860;BME280;10590;48.154;11.514;2022-07-03T01:40:09;95944.28;;;16.05;86.29
20860;BME280;10590;48.154;11.514;2022-07-03T01:45:14;95946.72;;;16.10;85.20
20860;BME280;10590;48.154;11.514;2022-07-03T01:50:16;95943.56;;;16.08;84.78
20860;BME280;10590;48.154;11.514;2022-07-03T01:55:18;95948.34;;;15.83;87.95
20860;BME280;10590;48.154;11.514;2022-07-03T02:00:22;95952.69;;;16.00;87.13
20860;BME280;10590;48.154;11.514;2022-07-03T02:05:33;95950.56;;;15.93;87.13
20860;BME280;10590;48.154;11.514;2022-07-03T02:10:39;95949.66;;;15.73;87.37
20860;BME280;10590;48.154;11.514;2022-07-03T02:15:43;95954.00;;;15.62;88.19
20860;BME280;10590;48.154;11.514;2022-07-03T02:20:46;95956.19;;;15.56;88.75
20860;BME280;10590;48.154;11.514;2022-07-03T02:25:57;95965.34;;;15.52;89.87
20860;BME280;10590;48.154;11.514;2022-07-03T02:31:04;95969.88;;;15.47;90.69
20860;BME280;10590;48.154;11.514;2022-07-03T02:36:10;95959.69;;;15.57;89.23
20860;BME280;10590;48.154;11.514;2022-07-03T02:41:15;95952.06;;;15.34;91.25
20860;BME280;10590;48.154;11.514;2022-07-03T02:46:27;95954.69;;;15.31;92.68
20860;BME280;10590;48.154;11.514;2022-07-03T02:51:54;95956.13;;;15.00;96.15
20860;BME280;10590;48.154;11.514;2022-07-03T02:57:05;95966.00;;;15.20;95.90
20860;BME280;10590;48.154;11.514;2022-07-03T03:02:14;95967.56;;;14.93;99.25
20860;BME280;10590;48.154;11.514;2022-07-03T03:07:29;95970.50;;;14.76;100.00
20860;BME280;10590;48.154;11.514;2022-07-03T03:12:36;95969.81;;;14.91;100.00
20860;BME280;10590;48.154;11.514;2022-07-03T03:17:42;95979.13;;;14.66;100.00
20860;BME280;10590;48.154;11.514;2022-07-03T03:22:57;95986.00;;;14.51;100.00
20860;BME280;10590;48.154;11.514;2022-07-03T03:28:00;95990.63;;;14.75;100.00
20860;BME280;10590;48.154;11.514;2022-07-03T03:33:04;95986.13;;;14.67;100.00
20860;BME280;10590;48.154;11.514;2022-07-03T03:38:07;95987.38;;;14.82;100.00
20860;BME280;10590;48.154;11.514;2022-07-03T03:43:08;95986.78;;;14.88;100.00
20860;BME280;10590;48.154;11.514;2022-07-03T03:48:11;95989.47;;;15.01;100.00
20860;BME280;10590;48.154;11.514;2022-07-03T03:53:14;95996.25;;;15.07;100.00
20860;BME280;10590;48.154;11.514;2022-07-03T03:58:16;95991.75;;;14.98;100.00
20860;BME280;10590;48.154;11.514;2022-07-03T04:03:19;96002.44;;;15.19;100.00
20860;BME280;10590;48.154;11.514;2022-07-03T04:08:22;96006.72;;;15.33;99.51
20860;BME280;10590;48.154;11.514;2022-07-03T04:13:24;96006.28;;;15.59;98.24
20860;BME280;10590;48.154;11.514;2022-07-03T04:18:27;96014.59;;;15.78;96.96
20860;BME280;10590;48.154;11.514;2022-07-03T04:23:29;96013.47;;;15.79;97.59
20860;BME280;10590;48.154;11.514;2022-07-03T04:28:31;96018.09;;;16.07;97.07
20860;BME280;10590;48.154;11.514;2022-07-03T04:33:34;96013.47;;;16.23;96.24
20860;BME280;10590;48.154;11.514;2022-07-03T04:38:36;96002.34;;;16.44;95.67
20860;BME280;10590;48.154;11.514;2022-07-03T04:43:37;96008.38;;;16.69;95.41
20860;BME280;10590;48.154;11.514;2022-07-03T04:48:40;96009.50;;;17.00;93.70
20860;BME280;10590;48.154;11.514;2022-07-03T04:53:42;96018.03;;;17.33;90.69
20860;BME280;10590;48.154;11.514;2022-07-03T04:58:44;96023.44;;;17.69;88.81
20860;BME280;10590;48.154;11.514;2022-07-03T05:03:47;96025.66;;;18.02;87.44
20860;BME280;10590;48.154;11.514;2022-07-03T05:08:49;96020.47;;;18.39;85.47
20860;BME280;10590;48.154;11.514;2022-07-03T05:13:50;96031.91;;;18.45;85.41
20860;BME280;10590;48.154;11.514;2022-07-03T05:18:53;96029.22;;;18.94;82.56
20860;BME280;10590;48.154;11.514;2022-07-03T05:23:55;96027.13;;;19.10;81.80
20860;BME280;10590;48.154;11.514;2022-07-03T05:28:57;96034.53;;;19.36;80.60
20860;BME280;10590;48.154;11.514;2022-07-03T05:33:59;96039.66;;;20.02;77.12
20860;BME280;10590;48.154;11.514;2022-07-03T05:39:01;96037.84;;;20.50;74.71
20860;BME280;10590;48.154;11.514;2022-07-03T05:44:20;96041.09;;;20.63;74.42
20860;BME280;10590;48.154;11.514;2022-07-03T05:49:23;96041.41;;;21.02;71.90
20860;BME280;10590;48.154;11.514;2022-07-03T05:54:25;96046.59;;;21.15;69.81
20860;BME280;10590;48.154;11.514;2022-07-03T05:59:26;96049.59;;;21.47;68.99
20860;BME280;10590;48.154;11.514;2022-07-03T06:04:29;96043.16;;;21.94;66.67
20860;BME280;10590;48.154;11.514;2022-07-03T06:09:31;96041.22;;;22.05;64.01
20860;BME280;10590;48.154;11.514;2022-07-03T06:14:32;96046.06;;;22.48;62.07
20860;BME280;10590;48.154;11.514;2022-07-03T06:19:35;96048.44;;;22.74;61.30
20860;BME280;10590;48.154;11.514;2022-07-03T06:24:37;96041.69;;;23.83;57.54
20860;BME280;10590;48.154;11.514;2022-07-03T06:29:38;96049.78;;;25.33;52.09
20860;BME280;10590;48.154;11.514;2022-07-03T06:34:42;96044.06;;;27.08;47.54
20860;BME280;10590;48.154;11.514;2022-07-03T06:39:44;96041.31;;;28.71;42.20
20860;BME280;10590;48.154;11.514;2022-07-03T06:44:45;96041.34;;;26.54;45.60
20860;BME280;10590;48.154;11.514;2022-07-03T06:49:48;96058.03;;;26.12;47.81
20860;BME280;10590;48.154;11.514;2022-07-03T06:54:50;96051.53;;;25.16;49.66
20860;BME280;10590;48.154;11.514;2022-07-03T06:59:52;96049.50;;;24.72;52.36
20860;BME280;10590;48.154;11.514;2022-07-03T07:04:55;96049.25;;;24.48;51.18
20860;BME280;10590;48.154;11.514;2022-07-03T07:09:56;96051.09;;;24.69;52.29
20860;BME280;10590;48.154;11.514;2022-07-03T07:14:58;96055.59;;;24.35;53.84
20860;BME280;10590;48.154;11.514;2022-07-03T07:20:01;96062.88;;;24.73;54.11
20860;BME280;10590;48.154;11.514;2022-07-03T07:25:03;96064.94;;;25.07;52.09
20860;BME280;10590;48.154;11.514;2022-07-03T07:30:06;96048.66;;;26.91;47.10
20860;BME280;10590;48.154;11.514;2022-07-03T07:35:09;96054.53;;;26.70;47.97
20860;BME280;10590;48.154;11.514;2022-07-03T07:40:12;96049.38;;;28.65;42.16
20860;BME280;10590;48.154;11.514;2022-07-03T07:45:13;96057.63;;;30.08;39.39
20860;BME280;10590;48.154;11.514;2022-07-03T07:50:16;96064.50;;;27.61;44.02
20860;BME280;10590;48.154;11.514;2022-07-03T07:55:18;96057.97;;;26.16;45.81
20860;BME280;10590;48.154;11.514;2022-07-03T08:00:20;96052.53;;;26.09;47.16
20860;BME280;10590;48.154;11.514;2022-07-03T08:05:23;96051.25;;;28.32;41.67
20860;BME280;10590;48.154;11.514;2022-07-03T08:16:34;96057.16;;;29.68;39.41
20860;BME280;10590;48.154;11.514;2022-07-03T08:21:37;96055.56;;;30.93;36.96
20860;BME280;10590;48.154;11.514;2022-07-03T08:26:38;96044.28;;;32.04;33.40
20860;BME280;10590;48.154;11.514;2022-07-03T08:31:40;96044.22;;;35.33;29.92
20860;BME280;10590;48.154;11.514;2022-07-03T08:36:43;96039.75;;;35.26;28.45
20860;BME280;10590;48.154;11.514;2022-07-03T08:41:45;96038.31;;;36.32;27.70
20860;BME280;10590;48.154;11.514;2022-07-03T08:46:50;96036.19;;;35.26;28.71
20860;BME280;10590;48.154;11.514;2022-07-03T08:51:57;96032.59;;;36.27;26.86
20860;BME280;10590;48.154;11.514;2022-07-03T08:57:01;96028.34;;;36.17;25.89
20860;BME280;10590;48.154;11.514;2022-07-03T09:02:03;96021.03;;;35.56;27.44
20860;BME280;10590;48.154;11.514;2022-07-03T09:07:07;96026.53;;;37.08;24.62
20860;BME280;10590;48.154;11.514;2022-07-03T09:12:10;96021.41;;;37.62;22.41
20860;BME280;10590;48.154;11.514;2022-07-03T09:17:12;96021.16;;;35.14;24.93
20860;BME280;10590;48.154;11.514;2022-07-03T09:22:19;96022.44;;;35.61;24.89
20860;BME280;10590;48.154;11.514;2022-07-03T09:27:22;96015.91;;;34.98;26.36
20860;BME280;10590;48.154;11.514;2022-07-03T09:32:25;96018.78;;;35.70;24.31
20860;BME280;10590;48.154;11.514;2022-07-03T09:37:28;96024.69;;;35.86;23.26
20860;BME280;10590;48.154;11.514;2022-07-03T09:42:33;96019.97;;;34.97;24.84
20860;BME280;10590;48.154;11.514;2022-07-03T09:47:35;96014.06;;;35.90;23.59
20860;BME280;10590;48.154;11.514;2022-07-03T09:52:39;96022.34;;;36.68;24.18
20860;BME280;10590;48.154;11.514;2022-07-03T09:57:42;96018.28;;;34.99;25.17
20860;BME280;10590;48.154;11.514;2022-07-03T10:02:56;96013.19;;;35.70;26.50
20860;BME280;10590;48.154;11.514;2022-07-03T10:08:00;96005.38;;;35.88;25.13
20860;BME280;10590;48.154;11.514;2022-07-03T10:13:04;96006.03;;;37.02;22.79
20860;BME280;10590;48.154;11.514;2022-07-03T10:18:07;95992.38;;;36.30;23.29
20860;BME280;10590;48.154;11.514;2022-07-03T10:23:10;95997.72;;;34.17;27.34
20860;BME280;10590;48.154;11.514;2022-07-03T10:28:13;95981.28;;;37.41;23.02
20860;BME280;10590;48.154;11.514;2022-07-03T10:33:15;95980.59;;;37.26;21.76
20860;BME280;10590;48.154;11.514;2022-07-03T10:38:25;95982.41;;;36.44;22.48
20860;BME280;10590;48.154;11.514;2022-07-03T10:43:35;95979.78;;;37.25;20.65
20860;BME280;10590;48.154;11.514;2022-07-03T10:49:00;95972.84;;;36.21;20.78
20860;BME280;10590;48.154;11.514;2022-07-03T10:54:14;95974.00;;;35.22;22.00
20860;BME280;10590;48.154;11.514;2022-07-03T10:59:16;95966.47;;;36.05;20.70
20860;BME280;10590;48.154;11.514;2022-07-03T11:04:18;95960.78;;;35.76;20.86
20860;BME280;10590;48.154;11.514;2022-07-03T11:09:23;95958.50;;;37.39;19.58
20860;BME280;10590;48.154;11.514;2022-07-03T11:14:26;95948.13;;;36.69;19.43
20860;BME280;10590;48.154;11.514;2022-07-03T11:19:28;95943.16;;;35.99;19.58
20860;BME280;10590;48.154;11.514;2022-07-03T11:24:43;95930.09;;;35.96;19.36
20860;BME280;10590;48.154;11.514;2022-07-03T11:29:54;95930.72;;;37.00;19.53
20860;BME280;10590;48.154;11.514;2022-07-03T11:34:56;95932.38;;;39.06;17.57
20860;BME280;10590;48.154;11.514;2022-07-03T11:40:02;95924.56;;;37.63;18.05
20860;BME280;10590;48.154;11.514;2022-07-03T11:45:05;95916.44;;;37.45;17.96
20860;BME280;10590;48.154;11.514;2022-07-03T11:50:07;95919.59;;;36.91;19.17
20860;BME280;10590;48.154;11.514;2022-07-03T11:55:10;95915.22;;;36.05;18.41
20860;BME280;10590;48.154;11.514;2022-07-03T12:00:12;95909.78;;;35.57;19.60
20860;BME280;10590;48.154;11.514;2022-07-03T12:05:14;95909.47;;;36.44;18.04
20860;BME280;10590;48.154;11.514;2022-07-03T12:10:17;95905.38;;;36.95;18.24
20860;BME280;10590;48.154;11.514;2022-07-03T12:15:21;95895.66;;;35.66;18.87
20860;BME280;10590;48.154;11.514;2022-07-03T12:20:23;95903.69;;;37.23;19.34
20860;BME280;10590;48.154;11.514;2022-07-03T12:25:29;95904.25;;;37.07;17.50
20860;BME280;10590;48.154;11.514;2022-07-03T12:30:31;95897.88;;;35.92;18.64
20860;BME280;10590;48.154;11.514;2022-07-03T12:35:33;95897.81;;;36.86;19.14
20860;BME280;10590;48.154;11.514;2022-07-03T12:40:36;95897.59;;;36.90;19.07
20860;BME280;10590;48.154;11.514;2022-07-03T12:45:38;95889.59;;;36.12;20.20
20860;BME280;10590;48.154;11.514;2022-07-03T12:50:44;95879.97;;;36.48;19.63
20860;BME280;10590;48.154;11.514;2022-07-03T12:55:47;95886.09;;;37.75;19.29
20860;BME280;10590;48.154;11.514;2022-07-03T13:00:49;95880.06;;;36.74;20.27
20860;BME280;10590;48.154;11.514;2022-07-03T13:05:51;95861.72;;;36.58;21.17
20860;BME280;10590;48.154;11.514;2022-07-03T13:10:57;95862.13;;;37.07;20.32
20860;BME280;10590;48.154;11.514;2022-07-03T13:16:00;95858.22;;;37.45;19.52
20860;BME280;10590;48.154;11.514;2022-07-03T13:21:01;95851.97;;;38.19;18.08
20860;BME280;10590;48.154;11.514;2022-07-03T13:26:04;95849.34;;;37.26;19.84
20860;BME280;10590;48.154;11.514;2022-07-03T13:31:06;95838.75;;;37.16;19.17
20860;BME280;10590;48.154;11.514;2022-07-03T13:36:07;95835.59;;;37.08;20.53
20860;BME280;10590;48.154;11.514;2022-07-03T13:41:10;95839.72;;;38.17;18.49
20860;BME280;10590;48.154;11.514;2022-07-03T13:46:12;95837.81;;;37.76;19.08
20860;BME280;10590;48.154;11.514;2022-07-03T13:51:14;95831.59;;;36.94;20.38
20860;BME280;10590;48.154;11.514;2022-07-03T13:56:18;95828.00;;;36.18;21.39
20860;BME280;10590;48.154;11.514;2022-07-03T14:01:19;95835.94;;;35.89;20.83
20860;BME280;10590;48.154;11.514;2022-07-03T14:06:21;95825.63;;;37.53;19.55
20860;BME280;10590;48.154;11.514;2022-07-03T14:11:24;95825.69;;;37.91;18.39
20860;BME280;10590;48.154;11.514;2022-07-03T14:16:26;95820.78;;;36.87;20.52
20860;BME280;10590;48.154;11.514;2022-07-03T14:21:28;95815.06;;;35.46;21.54
20860;BME280;10590;48.154;11.514;2022-07-03T14:26:31;95809.66;;;35.72;21.10
20860;BME280;10590;48.154;11.514;2022-07-03T14:31:52;95806.66;;;35.76;20.97
20860;BME280;10590;48.154;11.514;2022-07-03T14:37:11;95799.63;;;37.12;19.86
20860;BME280;10590;48.154;11.514;2022-07-03T14:42:14;95804.03;;;36.17;21.70
20860;BME280;10590;48.154;11.514;2022-07-03T14:47:16;95801.16;;;36.31;20.45
20860;BME280;10590;48.154;11.514;2022-07-03T14:52:18;95805.06;;;36.19;20.42
20860;BME280;10590;48.154;11.514;2022-07-03T14:57:26;95803.84;;;35.31;22.43
20860;BME280;10590;48.154;11.514;2022-07-03T15:02:34;95795.50;;;36.67;20.46
20860;BME280;10590;48.154;11.514;2022-07-03T15:07:42;95794.13;;;34.40;21.99
20860;BME280;10590;48.154;11.514;2022-07-03T15:12:52;95788.75;;;34.03;22.71
20860;BME280;10590;48.154;11.514;2022-07-03T15:17:56;95785.75;;;34.16;23.53
20860;BME280;10590;48.154;11.514;2022-07-03T15:23:00;95787.28;;;34.41;23.14
20860;BME280;10590;48.154;11.514;2022-07-03T15:28:04;95786.25;;;34.05;23.17
20860;BME280;10590;48.154;11.514;2022-07-03T15:33:09;95790.53;;;33.82;24.98
20860;BME280;10590;48.154;11.514;2022-07-03T15:38:12;95780.69;;;35.31;22.91
20860;BME280;10590;48.154;11.514;2022-07-03T15:48:44;95778.41;;;33.34;25.18
20860;BME280;10590;48.154;11.514;2022-07-03T15:53:56;95756.31;;;31.58;26.37
20860;BME280;10590;48.154;11.514;2022-07-03T15:59:03;95763.13;;;30.82;27.47
20860;BME280;10590;48.154;11.514;2022-07-03T16:04:08;95763.81;;;30.38;28.43
20860;BME280;10590;48.154;11.514;2022-07-03T16:09:10;95759.97;;;30.23;27.94
20860;BME280;10590;48.154;11.514;2022-07-03T16:14:14;95754.25;;;30.14;28.55
20860;BME280;10590;48.154;11.514;2022-07-03T16:19:17;95752.06;;;30.08;28.58
20860;BME280;10590;48.154;11.514;2022-07-03T16:24:22;95745.41;;;29.93;28.25
20860;BME280;10590;48.154;11.514;2022-07-03T16:29:25;95752.34;;;29.76;29.63
20860;BME280;10590;48.154;11.514;2022-07-03T16:34:31;95743.44;;;29.68;29.70
20860;BME280;10590;48.154;11.514;2022-07-03T16:39:36;95746.31;;;29.52;29.41
20860;BME280;10590;48.154;11.514;2022-07-03T16:44:42;95743.50;;;29.39;29.25
20860;BME280;10590;48.154;11.514;2022-07-03T16:49:46;95747.19;;;29.36;30.37
20860;BME280;10590;48.154;11.514;2022-07-03T16:54:48;95746.06;;;29.46;30.62
20860;BME280;10590;48.154;11.514;2022-07-03T16:59:53;95745.41;;;29.29;30.09
20860;BME280;10590;48.154;11.514;2022-07-03T17:04:55;95746.28;;;29.14;30.25
20860;BME280;10590;48.154;11.514;2022-07-03T17:09:58;95745.94;;;29.11;30.44
20860;BME280;10590;48.154;11.514;2022-07-03T17:15:02;95748.31;;;28.97;31.10
20860;BME280;10590;48.154;11.514;2022-07-03T17:20:05;95752.22;;;28.99;32.48
20860;BME280;10590;48.154;11.514;2022-07-03T17:25:12;95749.47;;;28.70;32.47
20860;BME280;10590;48.154;11.514;2022-07-03T17:30:16;95741.63;;;28.81;31.87
20860;BME280;10590;48.154;11.514;2022-07-03T17:35:20;95740.03;;;28.68;31.92
20860;BME280;10590;48.154;11.514;2022-07-03T17:40:24;95731.91;;;28.60;32.14
20860;BME280;10590;48.154;11.514;2022-07-03T17:45:27;95738.84;;;28.52;31.43
20860;BME280;10590;48.154;11.514;2022-07-03T17:50:30;95724.13;;;28.55;32.12
20860;BME280;10590;48.154;11.514;2022-07-03T17:55:32;95722.78;;;28.31;32.33
20860;BME280;10590;48.154;11.514;2022-07-03T18:00:37;95712.75;;;28.21;31.56
20860;BME280;10590;48.154;11.514;2022-07-03T18:05:42;95724.31;;;28.03;32.55
20860;BME280;10590;48.154;11.514;2022-07-03T18:10:50;95717.81;;;27.93;33.37
20860;BME280;10590;48.154;11.514;2022-07-03T18:16:08;95719.72;;;27.80;34.67
20860;BME280;10590;48.154;11.514;2022-07-03T18:21:27;95722.81;;;27.65;36.55
20860;BME280;10590;48.154;11.514;2022-07-03T18:26:34;95718.56;;;27.61;35.27
20860;BME280;10590;48.154;11.514;2022-07-03T18:31:43;95717.41;;;27.42;36.40
20860;BME280;10590;48.154;11.514;2022-07-03T18:36:46;95713.59;;;27.20;37.17
20860;BME280;10590;48.154;11.514;2022-07-03T18:41:48;95721.25;;;26.72;39.57
20860;BME280;10590;48.154;11.514;2022-07-03T18:46:56;95725.38;;;26.64;39.76
20860;BME280;10590;48.154;11.514;2022-07-03T18:52:00;95728.69;;;25.88;42.16
20860;BME280;10590;48.154;11.514;2022-07-03T18:57:08;95733.06;;;25.86;42.67
20860;BME280;10590;48.154;11.514;2022-07-03T19:02:18;95718.44;;;25.89;43.50
20860;BME280;10590;48.154;11.514;2022-07-03T19:07:25;95724.66;;;25.42;45.46
20860;BME280;10590;48.154;11.514;2022-07-03T19:12:35;95725.28;;;25.27;45.25
20860;BME280;10590;48.154;11.514;2022-07-03T19:17:41;95718.66;;;24.90;44.96
20860;BME280;10590;48.154;11.514;2022-07-03T19:22:56;95725.63;;;24.67;47.28
20860;BME280;10590;48.154;11.514;2022-07-03T19:27:59;95726.25;;;24.48;48.00
20860;BME280;10590;48.154;11.514;2022-07-03T19:33:03;95731.16;;;24.30;48.65
20860;BME280;10590;48.154;11.514;2022-07-03T19:38:05;95735.22;;;24.14;50.35
20860;BME280;10590;48.154;11.514;2022-07-03T19:43:07;95735.63;;;24.13;50.93
20860;BME280;10590;48.154;11.514;2022-07-03T19:48:10;95746.75;;;24.02;50.87
20860;BME280;10590;48.154;11.514;2022-07-03T19:53:12;95745.81;;;23.74;52.46
20860;BME280;10590;48.154;11.514;2022-07-03T19:58:14;95751.06;;;23.51;53.30
20860;BME280;10590;48.154;11.514;2022-07-03T20:03:17;95743.59;;;23.51;53.75
20860;BME280;10590;48.154;11.514;2022-07-03T20:08:20;95739.94;;;23.06;54.68
20860;BME280;10590;48.154;11.514;2022-07-03T20:13:22;95731.72;;;22.99;55.82
20860;BME280;10590;48.154;11.514;2022-07-03T20:18:25;95732.16;;;22.87;57.07
20860;BME280;10590;48.154;11.514;2022-07-03T20:23:27;95725.09;;;22.82;57.59
20860;BME280;10590;48.154;11.514;2022-07-03T20:28:28;95722.81;;;22.70;57.83
20860;BME280;10590;48.154;11.514;2022-07-03T20:33:31;95722.06;;;22.59;59.65
20860;BME280;10590;48.154;11.514;2022-07-03T20:38:33;95742.19;;;21.91;61.47
20860;BME280;10590;48.154;11.514;2022-07-03T20:48:38;95746.88;;;22.19;59.70
20860;BME280;10590;48.154;11.514;2022-07-03T20:53:40;95745.72;;;22.06;60.38
20860;BME280;10590;48.154;11.514;2022-07-03T20:58:41;95739.44;;;22.13;61.00
20860;BME280;10590;48.154;11.514;2022-07-03T21:03:44;95747.25;;;22.07;61.24
20860;BME280;10590;48.154;11.514;2022-07-03T21:08:46;95762.16;;;22.02;60.66
20860;BME280;10590;48.154;11.514;2022-07-03T21:13:48;95767.66;;;21.85;61.57
20860;BME280;10590;48.154;11.514;2022-07-03T21:18:51;95764.13;;;22.05;61.32
20860;BME280;10590;48.154;11.514;2022-07-03T21:23:52;95760.59;;;22.23;61.27
20860;BME280;10590;48.154;11.514;2022-07-03T21:28:55;95762.53;;;22.08;59.61
20860;BME280;10590;48.154;11.514;2022-07-03T21:33:58;95761.78;;;21.93;59.22
20860;BME280;10590;48.154;11.514;2022-07-03T21:39:00;95761.38;;;21.88;60.23
20860;BME280;10590;48.154;11.514;2022-07-03T21:44:03;95747.69;;;21.59;61.58
20860;BME280;10590;48.154;11.514;2022-07-03T21:49:06;95762.13;;;21.45;63.19
20860;BME280;10590;48.154;11.514;2022-07-03T21:54:09;95767.63;;;21.45;62.84
20860;BME280;10590;48.154;11.514;2022-07-03T21:59:11;95760.16;;;21.31;63.23
20860;BME280;10590;48.154;11.514;2022-07-03T22:04:14;95767.53;;;21.17;63.93
20860;BME280;10590;48.154;11.514;2022-07-03T22:09:15;95773.81;;;21.17;64.11
20860;BME280;10590;48.154;11.514;2022-07-03T22:14:34;95755.75;;;20.98;66.01
20860;BME280;10590;48.154;11.514;2022-07-03T22:19:37;95766.75;;;21.13;65.18
20860;BME280;10590;48.154;11.514;2022-07-03T22:24:39;95760.44;;;20.98;66.13
20860;BME280;10590;48.154;11.514;2022-07-03T22:29:41;95738.53;;;20.94;67.17
20860;BME280;10590;48.154;11.514;2022-07-03T22:34:45;95751.78;;;20.81;68.09
20860;BME280;10590;48.154;11.514;2022-07-03T22:39:47;95741.56;;;20.68;69.15
20860;BME280;10590;48.154;11.514;2022-07-03T22:44:49;95742.81;;;20.84;68.12
20860;BME280;10590;48.154;11.514;2022-07-03T22:49:52;95748.22;;;20.70;68.92
20860;BME280;10590;48.154;11.514;2022-07-03T22:54:53;95752.19;;;20.83;68.39
20860;BME280;10590;48.154;11.514;2022-07-03T22:59:55;95743.19;;;20.83;67.87
20860;BME280;10590;48.154;11.514;2022-07-03T23:04:58;95738.91;;;20.89;67.11
20860;BME280;10590;48.154;11.514;2022-07-03T23:10:00;95750.25;;;20.88;67.27
20860;BME280;10590;48.154;11.514;2022-07-03T23:15:02;95745.59;;;20.95;66.27
20860;BME280;10590;48.154;11.514;2022-07-03T23:20:06;95757.34;;;21.03;66.33
20860;BME280;10590;48.154;11.514;2022-07-03T23:25:08;95757.34;;;21.06;66.24
20860;BME280;10590;48.154;11.514;2022-07-03T23:30:11;95774.94;;;20.95;67.49
20860;BME280;10590;48.154;11.514;2022-07-03T23:35:14;95783.94;;;21.06;67.02
20860;BME280;10590;48.154;11.514;2022-07-03T23:40:15;95789.47;;;21.17;64.98
20860;BME280;10590;48.154;11.514;2022-07-03T23:45:17;95797.72;;;21.27;62.87
20860;BME280;10590;48.154;11.514;2022-07-03T23:50:20;95814.22;;;21.35;61.90
20860;BME280;10590;48.154;11.514;2022-07-03T23:55:37;95834.97;;;21.43;61.20
